sensor_id;sensor_type;location;lat;lon;timestamp;pressure;altitude;pressure_sealevel;temperature
4421;BMP180;11824;51.178;13.546;2023-06-14T00:00:14;100295.00;;;14.10
4421;BMP180;11824;51.178;13.546;2023-06-14T00:02:42;100289.00;;;14.00
4421;BMP180;11824;51.178;13.546;2023-06-14T00:05:10;100289.00;;;14.00
4421;BMP180;11824;51.178;13.546;2023-06-14T00:07:40;100297.00;;;13.90
4421;BMP180;11824;51.178;13.546;2023-06-14T00:10:11;100293.00;;;13.90
4421;BMP180;11824;51.178;13.546;2023-06-14T00:12:39;100286.00;;;13.90
4421;BMP180;11824;51.178;13.546;2023-06-14T00:15:07;100288.00;;;13.80
4421;BMP180;11824;51.178;13.546;2023-06-14T00:17:36;100293.00;;;13.80
4421;BMP180;11824;51.178;13.546;2023-06-14T00:20:06;100285.00;;;13.70
4421;BMP180;11824;51.178;13.546;2023-06-14T00:22:33;100287.00;;;13.70
4421;BMP180;11824;51.178;13.546;2023-06-14T00:25:03;100294.00;;;13.70
4421;BMP180;11824;51.178;13.546;2023-06-14T00:27:51;100295.00;;;13.60
4421;BMP180;11824;51.178;13.546;2023-06-14T00:30:18;100291.00;;;13.50
4421;BMP180;11824;51.178;13.546;2023-06-14T00:32:46;100295.00;;;13.50
4421;BMP180;11824;51.178;13.546;2023-06-14T00:35:14;100287.00;;;13.50
4421;BMP180;11824;51.178;13.546;2023-06-14T00:37:42;100288.00;;;13.40
4421;BMP180;11824;51.178;13.546;2023-06-14T00:40:10;100290.00;;;13.40
4421;BMP180;11824;51.178;13.546;2023-06-14T00:42:38;100291.00;;;13.40
4421;BMP180;11824;51.178;13.546;2023-06-14T00:45:07;100282.00;;;13.30
4421;BMP180;11824;51.178;13.546;2023-06-14T00:47:36;100278.00;;;13.30
4421;BMP180;11824;51.178;13.546;2023-06-14T00:50:07;100287.00;;;13.30
4421;BMP180;11824;51.178;13.546;2023-06-14T00:52:35;100281.00;;;13.20
4421;BMP180;11824;51.178;13.546;2023-06-14T00:55:03;100277.00;;;13.20
4421;BMP180;11824;51.178;13.546;2023-06-14T00:57:31;100277.00;;;13.10
4421;BMP180;11824;51.178;13.546;2023-06-14T00:59:58;100265.00;;;13.10
4421;BMP180;11824;51.178;13.546;2023-06-14T01:02:26;100267.00;;;13.10
4421;BMP180;11824;51.178;13.546;2023-06-14T01:04:54;100267.00;;;13.10
4421;BMP180;11824;51.178;13.546;2023-06-14T01:07:29;100265.00;;;13.00
4421;BMP180;11824;51.178;13.546;2023-06-14T01:10:06;100270.00;;;13.00
4421;BMP180;11824;51.178;13.546;2023-06-14T01:12:39;100262.00;;;13.00
4421;BMP180;11824;51.178;13.546;2023-06-14T01:15:13;100265.00;;;12.90
4421;BMP180;11824;51.178;13.546;2023-06-14T01:17:42;100273.00;;;12.90
4421;BMP180;11824;51.178;13.546;2023-06-14T01:20:12;100271.00;;;12.80
4421;BMP180;11824;51.178;13.546;2023-06-14T01:22:51;100272.00;;;12.80
4421;BMP180;11824;51.178;13.546;2023-06-14T01:25:19;100260.00;;;12.70
4421;BMP180;11824;51.178;13.546;2023-06-14T01:27:51;100267.00;;;12.70
4421;BMP180;11824;51.178;13.546;2023-06-14T01:30:21;100271.00;;;12.70
4421;BMP180;11824;51.178;13.546;2023-06-14T01:32:50;100269.00;;;12.60
4421;BMP180;11824;51.178;13.546;2023-06-14T01:35:18;100268.00;;;12.60
4421;BMP180;11824;51.178;13.546;2023-06-14T01:37:48;100277.00;;;12.50
4421;BMP180;11824;51.178;13.546;2023-06-14T01:40:16;100274.00;;;12.50
4421;BMP180;11824;51.178;13.546;2023-06-14T01:42:45;100268.00;;;12.40
4421;BMP180;11824;51.178;13.546;2023-06-14T01:45:13;100276.00;;;12.40
4421;BMP180;11824;51.178;13.546;2023-06-14T01:47:41;100278.00;;;12.30
4421;BMP180;11824;51.178;13.546;2023-06-14T01:50:09;100271.00;;;12.30
4421;BMP180;11824;51.178;13.546;2023-06-14T01:52:37;100267.00;;;12.30
4421;BMP180;11824;51.178;13.546;2023-06-14T01:55:06;100265.00;;;12.20
4421;BMP180;11824;51.178;13.546;2023-06-14T01:57:34;100269.00;;;12.20
4421;BMP180;11824;51.178;13.546;2023-06-14T02:00:02;100267.00;;;12.20
4421;BMP180;11824;51.178;13.546;2023-06-14T02:02:30;100282.00;;;12.10
4421;BMP180;11824;51.178;13.546;2023-06-14T02:04:58;100269.00;;;12.10
4421;BMP180;11824;51.178;13.546;2023-06-14T02:07:25;100273.00;;;12.10
4421;BMP180;11824;51.178;13.546;2023-06-14T02:09:53;100285.00;;;12.10
4421;BMP180;11824;51.178;13.546;2023-06-14T02:12:21;100278.00;;;12.00
4421;BMP180;11824;51.178;13.546;2023-06-14T02:14:48;100288.00;;;12.00
4421;BMP180;11824;51.178;13.546;2023-06-14T02:17:16;100286.00;;;12.00
4421;BMP180;11824;51.178;13.546;2023-06-14T02:19:44;100282.00;;;11.90
4421;BMP180;11824;51.178;13.546;2023-06-14T02:22:11;100286.00;;;11.90
4421;BMP180;11824;51.178;13.546;2023-06-14T02:24:41;100280.00;;;11.90
4421;BMP180;11824;51.178;13.546;2023-06-14T02:27:09;100283.00;;;11.90
4421;BMP180;11824;51.178;13.546;2023-06-14T02:29:38;100281.00;;;11.80
4421;BMP180;11824;51.178;13.546;2023-06-14T02:32:06;100287.00;;;11.80
4421;BMP180;11824;51.178;13.546;2023-06-14T02:34:34;100281.00;;;11.80
4421;BMP180;11824;51.178;13.546;2023-06-14T02:37:02;100289.00;;;11.70
4421;BMP180;11824;51.178;13.546;2023-06-14T02:39:30;100285.00;;;11.70
4421;BMP180;11824;51.178;13.546;2023-06-14T02:41:57;100294.00;;;11.60
4421;BMP180;11824;51.178;13.546;2023-06-14T02:44:26;100292.00;;;11.60
4421;BMP180;11824;51.178;13.546;2023-06-14T02:46:55;100296.00;;;11.60
4421;BMP180;11824;51.178;13.546;2023-06-14T02:49:22;100286.00;;;11.60
4421;BMP180;11824;51.178;13.546;2023-06-14T02:51:50;100285.00;;;11.50
4421;BMP180;11824;51.178;13.546;2023-06-14T02:54:18;100280.00;;;11.50
4421;BMP180;11824;51.178;13.546;2023-06-14T02:56:46;100288.00;;;11.50
4421;BMP180;11824;51.178;13.546;2023-06-14T02:59:13;100296.00;;;11.50
4421;BMP180;11824;51.178;13.546;2023-06-14T03:01:41;100293.00;;;11.40
4421;BMP180;11824;51.178;13.546;2023-06-14T03:04:09;100295.00;;;11.40
4421;BMP180;11824;51.178;13.546;2023-06-14T03:06:37;100295.00;;;11.40
4421;BMP180;11824;51.178;13.546;2023-06-14T03:09:06;100287.00;;;11.40
4421;BMP180;11824;51.178;13.546;2023-06-14T03:11:36;100292.00;;;11.40
4421;BMP180;11824;51.178;13.546;2023-06-14T03:14:03;100282.00;;;11.50
4421;BMP180;11824;51.178;13.546;2023-06-14T03:16:31;100283.00;;;11.40
4421;BMP180;11824;51.178;13.546;2023-06-14T03:18:58;100288.00;;;11.50
4421;BMP180;11824;51.178;13.546;2023-06-14T03:21:26;100290.00;;;11.50
4421;BMP180;11824;51.178;13.546;2023-06-14T03:23:54;100291.00;;;11.50
4421;BMP180;11824;51.178;13.546;2023-06-14T03:26:22;100310.00;;;11.60
4421;BMP180;11824;51.178;13.546;2023-06-14T03:28:49;100300.00;;;11.60
4421;BMP180;11824;51.178;13.546;2023-06-14T03:31:16;100311.00;;;11.60
4421;BMP180;11824;51.178;13.546;2023-06-14T03:33:45;100315.00;;;11.60
4421;BMP180;11824;51.178;13.546;2023-06-14T03:36:13;100314.00;;;11.60
4421;BMP180;11824;51.178;13.546;2023-06-14T03:38:41;100325.00;;;11.60
4421;BMP180;11824;51.178;13.546;2023-06-14T03:41:08;100316.00;;;11.70
4421;BMP180;11824;51.178;13.546;2023-06-14T03:43:36;100323.00;;;11.70
4421;BMP180;11824;51.178;13.546;2023-06-14T03:46:03;100321.00;;;11.80
4421;BMP180;11824;51.178;13.546;2023-06-14T03:48:31;100319.00;;;11.80
4421;BMP180;11824;51.178;13.546;2023-06-14T03:50:58;100333.00;;;11.80
4421;BMP180;11824;51.178;13.546;2023-06-14T03:53:28;100337.00;;;11.90
4421;BMP180;11824;51.178;13.546;2023-06-14T03:55:57;100344.00;;;11.90
4421;BMP180;11824;51.178;13.546;2023-06-14T03:58:24;100352.00;;;12.00
4421;BMP180;11824;51.178;13.546;2023-06-14T04:00:52;100342.00;;;12.00
4421;BMP180;11824;51.178;13.546;2023-06-14T04:03:19;100348.00;;;12.00
4421;BMP180;11824;51.178;13.546;2023-06-14T04:05:50;100356.00;;;12.10
4421;BMP180;11824;51.178;13.546;2023-06-14T04:08:23;100353.00;;;12.20
4421;BMP180;11824;51.178;13.546;2023-06-14T04:10:51;100351.00;;;12.30
4421;BMP180;11824;51.178;13.546;2023-06-14T04:13:19;100342.00;;;12.40
4421;BMP180;11824;51.178;13.546;2023-06-14T04:15:47;100346.00;;;12.80
4421;BMP180;11824;51.178;13.546;2023-06-14T04:18:15;100355.00;;;13.20
4421;BMP180;11824;51.178;13.546;2023-06-14T04:20:42;100351.00;;;13.60
4421;BMP180;11824;51.178;13.546;2023-06-14T04:23:15;100352.00;;;14.10
4421;BMP180;11824;51.178;13.546;2023-06-14T04:25:44;100355.00;;;14.60
4421;BMP180;11824;51.178;13.546;2023-06-14T04:28:12;100366.00;;;15.20
4421;BMP180;11824;51.178;13.546;2023-06-14T04:30:43;100364.00;;;15.80
4421;BMP180;11824;51.178;13.546;2023-06-14T04:33:11;100372.00;;;16.40
4421;BMP180;11824;51.178;13.546;2023-06-14T04:35:39;100377.00;;;17.00
4421;BMP180;11824;51.178;13.546;2023-06-14T04:38:07;100385.00;;;17.50
4421;BMP180;11824;51.178;13.546;2023-06-14T04:40:36;100386.00;;;17.90
4421;BMP180;11824;51.178;13.546;2023-06-14T04:43:09;100390.00;;;18.10
4421;BMP180;11824;51.178;13.546;2023-06-14T04:45:39;100391.00;;;18.40
4421;BMP180;11824;51.178;13.546;2023-06-14T04:48:12;100390.00;;;18.70
4421;BMP180;11824;51.178;13.546;2023-06-14T04:50:40;100395.00;;;18.90
4421;BMP180;11824;51.178;13.546;2023-06-14T04:53:07;100394.00;;;19.20
4421;BMP180;11824;51.178;13.546;2023-06-14T04:55:35;100397.00;;;19.40
4421;BMP180;11824;51.178;13.546;2023-06-14T04:58:03;100406.00;;;19.60
4421;BMP180;11824;51.178;13.546;2023-06-14T05:00:31;100411.00;;;19.90
4421;BMP180;11824;51.178;13.546;2023-06-14T05:02:59;100404.00;;;20.20
4421;BMP180;11824;51.178;13.546;2023-06-14T05:05:28;100407.00;;;20.50
4421;BMP180;11824;51.178;13.546;2023-06-14T05:07:56;100403.00;;;20.80
4421;BMP180;11824;51.178;13.546;2023-06-14T05:10:24;100405.00;;;21.00
4421;BMP180;11824;51.178;13.546;2023-06-14T05:12:52;100414.00;;;21.10
4421;BMP180;11824;51.178;13.546;2023-06-14T05:15:21;100405.00;;;21.20
4421;BMP180;11824;51.178;13.546;2023-06-14T05:17:52;100417.00;;;21.50
4421;BMP180;11824;51.178;13.546;2023-06-14T05:20:22;100414.00;;;21.60
4421;BMP180;11824;51.178;13.546;2023-06-14T05:22:55;100418.00;;;21.70
4421;BMP180;11824;51.178;13.546;2023-06-14T05:25:24;100418.00;;;21.50
4421;BMP180;11824;51.178;13.546;2023-06-14T05:27:51;100422.00;;;21.10
4421;BMP180;11824;51.178;13.546;2023-06-14T05:30:19;100420.00;;;20.60
4421;BMP180;11824;51.178;13.546;2023-06-14T05:32:46;100423.00;;;20.20
4421;BMP180;11824;51.178;13.546;2023-06-14T05:35:16;100425.00;;;19.90
4421;BMP180;11824;51.178;13.546;2023-06-14T05:37:44;100417.00;;;19.70
4421;BMP180;11824;51.178;13.546;2023-06-14T05:40:13;100421.00;;;19.70
4421;BMP180;11824;51.178;13.546;2023-06-14T05:42:40;100409.00;;;20.00
4421;BMP180;11824;51.178;13.546;2023-06-14T05:45:08;100405.00;;;20.50
4421;BMP180;11824;51.178;13.546;2023-06-14T05:47:35;100412.00;;;21.00
4421;BMP180;11824;51.178;13.546;2023-06-14T05:50:04;100400.00;;;21.50
4421;BMP180;11824;51.178;13.546;2023-06-14T05:52:31;100416.00;;;22.10
4421;BMP180;11824;51.178;13.546;2023-06-14T05:54:59;100418.00;;;22.90
4421;BMP180;11824;51.178;13.546;2023-06-14T05:57:28;100418.00;;;23.40
4421;BMP180;11824;51.178;13.546;2023-06-14T05:59:55;100432.00;;;23.90
4421;BMP180;11824;51.178;13.546;2023-06-14T06:02:23;100433.00;;;24.30
4421;BMP180;11824;51.178;13.546;2023-06-14T06:04:50;100433.00;;;24.60
4421;BMP180;11824;51.178;13.546;2023-06-14T06:07:17;100432.00;;;24.70
4421;BMP180;11824;51.178;13.546;2023-06-14T06:09:45;100444.00;;;24.80
4421;BMP180;11824;51.178;13.546;2023-06-14T06:12:13;100437.00;;;24.70
4421;BMP180;11824;51.178;13.546;2023-06-14T06:14:41;100440.00;;;24.80
4421;BMP180;11824;51.178;13.546;2023-06-14T06:17:08;100435.00;;;24.90
4421;BMP180;11824;51.178;13.546;2023-06-14T06:19:39;100440.00;;;25.10
4421;BMP180;11824;51.178;13.546;2023-06-14T06:22:06;100440.00;;;25.40
4421;BMP180;11824;51.178;13.546;2023-06-14T06:24:34;100452.00;;;25.60
4421;BMP180;11824;51.178;13.546;2023-06-14T06:27:04;100443.00;;;25.60
4421;BMP180;11824;51.178;13.546;2023-06-14T06:29:34;100450.00;;;25.80
4421;BMP180;11824;51.178;13.546;2023-06-14T06:32:03;100445.00;;;26.00
4421;BMP180;11824;51.178;13.546;2023-06-14T06:34:31;100448.00;;;26.10
4421;BMP180;11824;51.178;13.546;2023-06-14T06:36:58;100453.00;;;26.30
4421;BMP180;11824;51.178;13.546;2023-06-14T06:39:25;100459.00;;;26.60
4421;BMP180;11824;51.178;13.546;2023-06-14T06:41:53;100463.00;;;26.80
4421;BMP180;11824;51.178;13.546;2023-06-14T06:44:20;100461.00;;;27.00
4421;BMP180;11824;51.178;13.546;2023-06-14T06:46:47;100461.00;;;27.10
4421;BMP180;11824;51.178;13.546;2023-06-14T06:49:16;100455.00;;;27.20
4421;BMP180;11824;51.178;13.546;2023-06-14T06:51:53;100461.00;;;27.20
4421;BMP180;11824;51.178;13.546;2023-06-14T06:54:26;100463.00;;;27.10
4421;BMP180;11824;51.178;13.546;2023-06-14T06:56:53;100461.00;;;27.10
4421;BMP180;11824;51.178;13.546;2023-06-14T06:59:21;100462.00;;;27.20
4421;BMP180;11824;51.178;13.546;2023-06-14T07:01:48;100468.00;;;27.20
4421;BMP180;11824;51.178;13.546;2023-06-14T07:04:18;100466.00;;;27.20
4421;BMP180;11824;51.178;13.546;2023-06-14T07:06:46;100462.00;;;27.00
4421;BMP180;11824;51.178;13.546;2023-06-14T07:09:14;100463.00;;;26.80
4421;BMP180;11824;51.178;13.546;2023-06-14T07:11:44;100465.00;;;26.60
4421;BMP180;11824;51.178;13.546;2023-06-14T07:14:12;100456.00;;;26.30
4421;BMP180;11824;51.178;13.546;2023-06-14T07:16:42;100461.00;;;26.10
4421;BMP180;11824;51.178;13.546;2023-06-14T07:19:10;100460.00;;;25.80
4421;BMP180;11824;51.178;13.546;2023-06-14T07:21:38;100463.00;;;25.50
4421;BMP180;11824;51.178;13.546;2023-06-14T07:24:06;100462.00;;;25.20
4421;BMP180;11824;51.178;13.546;2023-06-14T07:26:34;100464.00;;;24.80
4421;BMP180;11824;51.178;13.546;2023-06-14T07:29:02;100468.00;;;24.30
4421;BMP180;11824;51.178;13.546;2023-06-14T07:31:30;100473.00;;;23.70
4421;BMP180;11824;51.178;13.546;2023-06-14T07:33:57;100464.00;;;23.10
4421;BMP180;11824;51.178;13.546;2023-06-14T07:36:25;100463.00;;;22.60
4421;BMP180;11824;51.178;13.546;2023-06-14T07:38:53;100465.00;;;22.10
4421;BMP180;11824;51.178;13.546;2023-06-14T07:41:20;100468.00;;;21.60
4421;BMP180;11824;51.178;13.546;2023-06-14T07:43:48;100458.00;;;21.30
4421;BMP180;11824;51.178;13.546;2023-06-14T07:46:15;100460.00;;;21.00
4421;BMP180;11824;51.178;13.546;2023-06-14T07:48:43;100454.00;;;20.80
4421;BMP180;11824;51.178;13.546;2023-06-14T07:51:13;100459.00;;;20.60
4421;BMP180;11824;51.178;13.546;2023-06-14T07:53:41;100464.00;;;20.40
4421;BMP180;11824;51.178;13.546;2023-06-14T07:56:10;100465.00;;;20.30
4421;BMP180;11824;51.178;13.546;2023-06-14T07:58:43;100470.00;;;20.30
4421;BMP180;11824;51.178;13.546;2023-06-14T08:01:10;100466.00;;;20.20
4421;BMP180;11824;51.178;13.546;2023-06-14T08:03:38;100467.00;;;20.20
4421;BMP180;11824;51.178;13.546;2023-06-14T08:06:07;100474.00;;;20.10
4421;BMP180;11824;51.178;13.546;2023-06-14T08:08:35;100471.00;;;20.10
4421;BMP180;11824;51.178;13.546;2023-06-14T08:11:04;100471.00;;;20.20
4421;BMP180;11824;51.178;13.546;2023-06-14T08:13:32;100466.00;;;20.20
4421;BMP180;11824;51.178;13.546;2023-06-14T08:16:00;100475.00;;;20.30
4421;BMP180;11824;51.178;13.546;2023-06-14T08:18:29;100467.00;;;20.40
4421;BMP180;11824;51.178;13.546;2023-06-14T08:20:57;100474.00;;;20.50
4421;BMP180;11824;51.178;13.546;2023-06-14T08:23:27;100468.00;;;20.80
4421;BMP180;11824;51.178;13.546;2023-06-14T08:25:55;100479.00;;;21.00
4421;BMP180;11824;51.178;13.546;2023-06-14T08:28:23;100471.00;;;21.30
4421;BMP180;11824;51.178;13.546;2023-06-14T08:30:52;100474.00;;;21.50
4421;BMP180;11824;51.178;13.546;2023-06-14T08:33:19;100468.00;;;21.70
4421;BMP180;11824;51.178;13.546;2023-06-14T08:35:47;100468.00;;;21.70
4421;BMP180;11824;51.178;13.546;2023-06-14T08:38:15;100475.00;;;21.90
4421;BMP180;11824;51.178;13.546;2023-06-14T08:40:43;100480.00;;;22.10
4421;BMP180;11824;51.178;13.546;2023-06-14T08:43:12;100471.00;;;22.30
4421;BMP180;11824;51.178;13.546;2023-06-14T08:45:40;100467.00;;;22.30
4421;BMP180;11824;51.178;13.546;2023-06-14T08:48:09;100468.00;;;22.40
4421;BMP180;11824;51.178;13.546;2023-06-14T08:50:37;100476.00;;;22.50
4421;BMP180;11824;51.178;13.546;2023-06-14T08:53:09;100473.00;;;22.50
4421;BMP180;11824;51.178;13.546;2023-06-14T08:55:39;100457.00;;;22.50
4421;BMP180;11824;51.178;13.546;2023-06-14T08:58:10;100468.00;;;22.40
4421;BMP180;11824;51.178;13.546;2023-06-14T09:00:40;100469.00;;;22.30
4421;BMP180;11824;51.178;13.546;2023-06-14T09:03:10;100476.00;;;22.30
4421;BMP180;11824;51.178;13.546;2023-06-14T09:05:40;100478.00;;;22.10
4421;BMP180;11824;51.178;13.546;2023-06-14T09:08:07;100474.00;;;22.00
4421;BMP180;11824;51.178;13.546;2023-06-14T09:10:35;100475.00;;;21.90
4421;BMP180;11824;51.178;13.546;2023-06-14T09:13:04;100481.00;;;21.80
4421;BMP180;11824;51.178;13.546;2023-06-14T09:15:32;100483.00;;;21.70
4421;BMP180;11824;51.178;13.546;2023-06-14T09:18:01;100479.00;;;21.70
4421;BMP180;11824;51.178;13.546;2023-06-14T09:20:31;100479.00;;;21.70
4421;BMP180;11824;51.178;13.546;2023-06-14T09:23:01;100480.00;;;21.80
4421;BMP180;11824;51.178;13.546;2023-06-14T09:25:32;100481.00;;;22.00
4421;BMP180;11824;51.178;13.546;2023-06-14T09:28:07;100475.00;;;22.10
4421;BMP180;11824;51.178;13.546;2023-06-14T09:30:36;100480.00;;;22.30
4421;BMP180;11824;51.178;13.546;2023-06-14T09:33:04;100482.00;;;22.50
4421;BMP180;11824;51.178;13.546;2023-06-14T09:35:34;100497.00;;;22.60
4421;BMP180;11824;51.178;13.546;2023-06-14T09:38:01;100480.00;;;22.70
4421;BMP180;11824;51.178;13.546;2023-06-14T09:40:29;100476.00;;;22.70
4421;BMP180;11824;51.178;13.546;2023-06-14T09:43:00;100484.00;;;22.80
4421;BMP180;11824;51.178;13.546;2023-06-14T09:45:28;100482.00;;;22.80
4421;BMP180;11824;51.178;13.546;2023-06-14T09:47:59;100482.00;;;22.80
4421;BMP180;11824;51.178;13.546;2023-06-14T09:50:35;100485.00;;;22.70
4421;BMP180;11824;51.178;13.546;2023-06-14T09:53:06;100480.00;;;22.70
4421;BMP180;11824;51.178;13.546;2023-06-14T09:55:35;100474.00;;;22.70
4421;BMP180;11824;51.178;13.546;2023-06-14T09:58:05;100475.00;;;22.80
4421;BMP180;11824;51.178;13.546;2023-06-14T10:00:35;100478.00;;;22.80
4421;BMP180;11824;51.178;13.546;2023-06-14T10:03:10;100470.00;;;22.90
4421;BMP180;11824;51.178;13.546;2023-06-14T10:08:10;100471.00;;;22.90
4421;BMP180;11824;51.178;13.546;2023-06-14T10:10:39;100472.00;;;22.90
4421;BMP180;11824;51.178;13.546;2023-06-14T10:13:07;100468.00;;;22.90
4421;BMP180;11824;51.178;13.546;2023-06-14T10:15:41;100489.00;;;22.70
4421;BMP180;11824;51.178;13.546;2023-06-14T10:18:17;100475.00;;;22.50
4421;BMP180;11824;51.178;13.546;2023-06-14T10:20:53;100472.00;;;22.30
4421;BMP180;11824;51.178;13.546;2023-06-14T10:23:25;100482.00;;;22.10
4421;BMP180;11824;51.178;13.546;2023-06-14T10:25:56;100482.00;;;21.80
4421;BMP180;11824;51.178;13.546;2023-06-14T10:28:24;100476.00;;;21.60
4421;BMP180;11824;51.178;13.546;2023-06-14T10:31:05;100467.00;;;21.50
4421;BMP180;11824;51.178;13.546;2023-06-14T10:33:33;100466.00;;;21.40
4421;BMP180;11824;51.178;13.546;2023-06-14T10:36:25;100469.00;;;21.30
4421;BMP180;11824;51.178;13.546;2023-06-14T10:39:03;100471.00;;;21.30
4421;BMP180;11824;51.178;13.546;2023-06-14T10:41:32;100461.00;;;21.20
4421;BMP180;11824;51.178;13.546;2023-06-14T10:47:28;100455.00;;;21.30
4421;BMP180;11824;51.178;13.546;2023-06-14T10:49:57;100451.00;;;21.40
4421;BMP180;11824;51.178;13.546;2023-06-14T10:52:28;100445.00;;;21.50
4421;BMP180;11824;51.178;13.546;2023-06-14T10:55:04;100449.00;;;21.70
4421;BMP180;11824;51.178;13.546;2023-06-14T10:57:33;100440.00;;;21.80
4421;BMP180;11824;51.178;13.546;2023-06-14T11:00:15;100445.00;;;21.90
4421;BMP180;11824;51.178;13.546;2023-06-14T11:05:48;100440.00;;;22.30
4421;BMP180;11824;51.178;13.546;2023-06-14T11:11:32;100433.00;;;22.50
4421;BMP180;11824;51.178;13.546;2023-06-14T11:14:01;100444.00;;;22.60
4421;BMP180;11824;51.178;13.546;2023-06-14T11:16:29;100445.00;;;22.60
4421;BMP180;11824;51.178;13.546;2023-06-14T11:18:56;100436.00;;;22.70
4421;BMP180;11824;51.178;13.546;2023-06-14T11:21:25;100438.00;;;22.70
4421;BMP180;11824;51.178;13.546;2023-06-14T11:23:57;100440.00;;;22.70
4421;BMP180;11824;51.178;13.546;2023-06-14T11:26:28;100439.00;;;22.60
4421;BMP180;11824;51.178;13.546;2023-06-14T11:28:57;100444.00;;;22.60
4421;BMP180;11824;51.178;13.546;2023-06-14T11:31:25;100448.00;;;22.60
4421;BMP180;11824;51.178;13.546;2023-06-14T11:33:54;100443.00;;;22.60
4421;BMP180;11824;51.178;13.546;2023-06-14T11:36:23;100431.00;;;22.50
4421;BMP180;11824;51.178;13.546;2023-06-14T11:38:59;100434.00;;;22.60
4421;BMP180;11824;51.178;13.546;2023-06-14T11:41:33;100435.00;;;22.60
4421;BMP180;11824;51.178;13.546;2023-06-14T11:44:02;100443.00;;;22.60
4421;BMP180;11824;51.178;13.546;2023-06-14T11:46:29;100445.00;;;22.60
4421;BMP180;11824;51.178;13.546;2023-06-14T11:48:57;100443.00;;;22.70
4421;BMP180;11824;51.178;13.546;2023-06-14T11:51:25;100441.00;;;22.80
4421;BMP180;11824;51.178;13.546;2023-06-14T11:53:52;100439.00;;;22.80
4421;BMP180;11824;51.178;13.546;2023-06-14T11:56:20;100433.00;;;22.80
4421;BMP180;11824;51.178;13.546;2023-06-14T11:58:47;100435.00;;;22.80
4421;BMP180;11824;51.178;13.546;2023-06-14T12:01:17;100430.00;;;22.70
4421;BMP180;11824;51.178;13.546;2023-06-14T12:03:50;100432.00;;;22.80
4421;BMP180;11824;51.178;13.546;2023-06-14T12:06:26;100421.00;;;22.90
4421;BMP180;11824;51.178;13.546;2023-06-14T12:08:56;100424.00;;;23.00
4421;BMP180;11824;51.178;13.546;2023-06-14T12:11:24;100422.00;;;23.10
4421;BMP180;11824;51.178;13.546;2023-06-14T12:13:56;100424.00;;;23.20
4421;BMP180;11824;51.178;13.546;2023-06-14T12:16:31;100421.00;;;23.10
4421;BMP180;11824;51.178;13.546;2023-06-14T12:19:07;100425.00;;;23.10
4421;BMP180;11824;51.178;13.546;2023-06-14T12:21:35;100422.00;;;23.10
4421;BMP180;11824;51.178;13.546;2023-06-14T12:24:05;100428.00;;;23.10
4421;BMP180;11824;51.178;13.546;2023-06-14T12:26:37;100424.00;;;23.00
4421;BMP180;11824;51.178;13.546;2023-06-14T12:29:05;100424.00;;;23.00
4421;BMP180;11824;51.178;13.546;2023-06-14T12:31:34;100426.00;;;22.90
4421;BMP180;11824;51.178;13.546;2023-06-14T12:34:01;100426.00;;;22.80
4421;BMP180;11824;51.178;13.546;2023-06-14T12:36:29;100426.00;;;22.80
4421;BMP180;11824;51.178;13.546;2023-06-14T12:38:56;100435.00;;;22.80
4421;BMP180;11824;51.178;13.546;2023-06-14T12:41:24;100433.00;;;22.80
4421;BMP180;11824;51.178;13.546;2023-06-14T12:43:51;100438.00;;;22.80
4421;BMP180;11824;51.178;13.546;2023-06-14T12:46:18;100431.00;;;22.80
4421;BMP180;11824;51.178;13.546;2023-06-14T12:48:47;100429.00;;;22.70
4421;BMP180;11824;51.178;13.546;2023-06-14T12:51:14;100431.00;;;22.60
4421;BMP180;11824;51.178;13.546;2023-06-14T12:53:42;100433.00;;;22.60
4421;BMP180;11824;51.178;13.546;2023-06-14T12:56:10;100433.00;;;22.50
4421;BMP180;11824;51.178;13.546;2023-06-14T12:58:38;100434.00;;;22.40
4421;BMP180;11824;51.178;13.546;2023-06-14T13:01:05;100425.00;;;22.20
4421;BMP180;11824;51.178;13.546;2023-06-14T13:03:32;100421.00;;;22.10
4421;BMP180;11824;51.178;13.546;2023-06-14T13:06:02;100429.00;;;22.00
4421;BMP180;11824;51.178;13.546;2023-06-14T13:08:30;100419.00;;;22.00
4421;BMP180;11824;51.178;13.546;2023-06-14T13:10:58;100416.00;;;21.90
4421;BMP180;11824;51.178;13.546;2023-06-14T13:13:25;100404.00;;;22.00
4421;BMP180;11824;51.178;13.546;2023-06-14T13:15:53;100420.00;;;22.10
4421;BMP180;11824;51.178;13.546;2023-06-14T13:18:20;100411.00;;;22.00
4421;BMP180;11824;51.178;13.546;2023-06-14T13:20:48;100409.00;;;22.00
4421;BMP180;11824;51.178;13.546;2023-06-14T13:23:16;100404.00;;;21.90
4421;BMP180;11824;51.178;13.546;2023-06-14T13:25:43;100411.00;;;21.80
4421;BMP180;11824;51.178;13.546;2023-06-14T13:28:11;100408.00;;;21.80
4421;BMP180;11824;51.178;13.546;2023-06-14T13:30:38;100394.00;;;21.80
4421;BMP180;11824;51.178;13.546;2023-06-14T13:33:06;100397.00;;;21.90
4421;BMP180;11824;51.178;13.546;2023-06-14T13:35:33;100401.00;;;21.90
4421;BMP180;11824;51.178;13.546;2023-06-14T13:38:01;100395.00;;;22.00
4421;BMP180;11824;51.178;13.546;2023-06-14T13:40:29;100395.00;;;22.10
4421;BMP180;11824;51.178;13.546;2023-06-14T13:42:57;100393.00;;;22.10
4421;BMP180;11824;51.178;13.546;2023-06-14T13:45:24;100392.00;;;22.30
4421;BMP180;11824;51.178;13.546;2023-06-14T13:47:51;100395.00;;;22.30
4421;BMP180;11824;51.178;13.546;2023-06-14T13:50:19;100398.00;;;22.40
4421;BMP180;11824;51.178;13.546;2023-06-14T13:52:46;100392.00;;;22.40
4421;BMP180;11824;51.178;13.546;2023-06-14T13:55:14;100394.00;;;22.30
4421;BMP180;11824;51.178;13.546;2023-06-14T13:57:42;100392.00;;;22.40
4421;BMP180;11824;51.178;13.546;2023-06-14T14:00:11;100382.00;;;22.40
4421;BMP180;11824;51.178;13.546;2023-06-14T14:02:38;100385.00;;;22.60
4421;BMP180;11824;51.178;13.546;2023-06-14T14:05:08;100385.00;;;22.70
4421;BMP180;11824;51.178;13.546;2023-06-14T14:07:35;100380.00;;;22.70
4421;BMP180;11824;51.178;13.546;2023-06-14T14:10:05;100380.00;;;22.80
4421;BMP180;11824;51.178;13.546;2023-06-14T14:12:32;100377.00;;;22.80
4421;BMP180;11824;51.178;13.546;2023-06-14T14:15:00;100369.00;;;22.90
4421;BMP180;11824;51.178;13.546;2023-06-14T14:17:28;100382.00;;;22.90